METAR Data
IDs: Format: Raw Decoded Include TAF

Data at: 1240 UTC 24 Jan 2021

KMKT 241228Z AUTO 33005KT 10SM SCT012 BKN037 M09/M09 A3005 RMK AO2 FZRANO